sensor_id;sensor_type;location;lat;lon;timestamp;temperature;humidity
43697;DHT22;29301;47.620;19.560;2022-12-10T00:01:32;6.10;99.90
43697;DHT22;29301;47.620;19.560;2022-12-10T00:03:58;6.10;99.90
43697;DHT22;29301;47.620;19.560;2022-12-10T00:06:27;6.10;99.90
43697;DHT22;29301;47.620;19.560;2022-12-10T00:08:53;6.10;99.90
43697;DHT22;29301;47.620;19.560;2022-12-10T00:11:19;6.10;99.90
43697;DHT22;29301;47.620;19.560;2022-12-10T00:13:46;6.00;99.90
43697;DHT22;29301;47.620;19.560;2022-12-10T00:16:14;6.00;99.90
43697;DHT22;29301;47.620;19.560;2022-12-10T00:18:40;6.00;99.90
43697;DHT22;29301;47.620;19.560;2022-12-10T00:21:09;6.00;99.90
43697;DHT22;29301;47.620;19.560;2022-12-10T00:23:35;5.90;99.90
43697;DHT22;29301;47.620;19.560;2022-12-10T00:26:06;5.90;99.90
43697;DHT22;29301;47.620;19.560;2022-12-10T00:28:32;5.90;99.90
43697;DHT22;29301;47.620;19.560;2022-12-10T00:31:03;5.90;99.90
43697;DHT22;29301;47.620;19.560;2022-12-10T00:33:29;5.90;99.90
43697;DHT22;29301;47.620;19.560;2022-12-10T00:35:55;6.00;99.90
43697;DHT22;29301;47.620;19.560;2022-12-10T00:38:21;6.00;99.90
43697;DHT22;29301;47.620;19.560;2022-12-10T00:40:46;6.00;99.90
43697;DHT22;29301;47.620;19.560;2022-12-10T00:43:12;6.10;99.90
43697;DHT22;29301;47.620;19.560;2022-12-10T00:45:37;6.10;99.90
43697;DHT22;29301;47.620;19.560;2022-12-10T00:48:03;6.20;99.90
43697;DHT22;29301;47.620;19.560;2022-12-10T00:50:29;6.20;99.90
43697;DHT22;29301;47.620;19.560;2022-12-10T00:52:54;6.20;99.90
43697;DHT22;29301;47.620;19.560;2022-12-10T00:55:20;6.20;99.90
43697;DHT22;29301;47.620;19.560;2022-12-10T00:57:45;6.20;99.90
43697;DHT22;29301;47.620;19.560;2022-12-10T01:00:12;6.10;99.90
43697;DHT22;29301;47.620;19.560;2022-12-10T01:02:38;6.10;99.90
43697;DHT22;29301;47.620;19.560;2022-12-10T01:05:04;6.20;99.90
43697;DHT22;29301;47.620;19.560;2022-12-10T01:07:29;6.10;99.90
43697;DHT22;29301;47.620;19.560;2022-12-10T01:09:55;6.20;99.90
43697;DHT22;29301;47.620;19.560;2022-12-10T01:12:21;6.30;99.90
43697;DHT22;29301;47.620;19.560;2022-12-10T01:14:47;6.30;99.90
43697;DHT22;29301;47.620;19.560;2022-12-10T01:17:12;6.30;99.90
43697;DHT22;29301;47.620;19.560;2022-12-10T01:19:38;6.30;99.90
43697;DHT22;29301;47.620;19.560;2022-12-10T01:22:04;6.30;99.90
43697;DHT22;29301;47.620;19.560;2022-12-10T01:24:29;6.40;99.90
43697;DHT22;29301;47.620;19.560;2022-12-10T01:26:55;6.40;99.90
43697;DHT22;29301;47.620;19.560;2022-12-10T01:29:22;6.40;99.90
43697;DHT22;29301;47.620;19.560;2022-12-10T01:31:51;6.40;99.90
43697;DHT22;29301;47.620;19.560;2022-12-10T01:34:17;6.40;99.90
43697;DHT22;29301;47.620;19.560;2022-12-10T01:36:44;6.40;99.90
43697;DHT22;29301;47.620;19.560;2022-12-10T01:39:13;6.40;99.90
43697;DHT22;29301;47.620;19.560;2022-12-10T01:41:46;6.40;99.90
43697;DHT22;29301;47.620;19.560;2022-12-10T01:46:47;6.30;99.90
43697;DHT22;29301;47.620;19.560;2022-12-10T01:51:42;6.30;99.90
43697;DHT22;29301;47.620;19.560;2022-12-10T01:54:11;6.20;99.90
43697;DHT22;29301;47.620;19.560;2022-12-10T01:56:41;6.30;99.90
43697;DHT22;29301;47.620;19.560;2022-12-10T01:59:07;6.30;99.90
43697;DHT22;29301;47.620;19.560;2022-12-10T02:02:01;6.30;99.90
43697;DHT22;29301;47.620;19.560;2022-12-10T02:09:38;6.30;99.90
43697;DHT22;29301;47.620;19.560;2022-12-10T02:12:19;6.30;99.90
43697;DHT22;29301;47.620;19.560;2022-12-10T02:22:30;6.20;99.90
43697;DHT22;29301;47.620;19.560;2022-12-10T02:24:58;6.20;99.90
43697;DHT22;29301;47.620;19.560;2022-12-10T02:27:32;6.20;99.90
43697;DHT22;29301;47.620;19.560;2022-12-10T02:30:00;6.20;99.90
43697;DHT22;29301;47.620;19.560;2022-12-10T02:32:36;6.20;99.90
43697;DHT22;29301;47.620;19.560;2022-12-10T02:35:07;6.20;99.90
43697;DHT22;29301;47.620;19.560;2022-12-10T02:37:46;6.20;99.90
43697;DHT22;29301;47.620;19.560;2022-12-10T02:40:17;6.20;99.90
43697;DHT22;29301;47.620;19.560;2022-12-10T02:42:45;6.20;99.90
43697;DHT22;29301;47.620;19.560;2022-12-10T02:45:13;6.30;99.90
43697;DHT22;29301;47.620;19.560;2022-12-10T02:47:40;6.30;99.90
43697;DHT22;29301;47.620;19.560;2022-12-10T02:50:07;6.40;99.90
43697;DHT22;29301;47.620;19.560;2022-12-10T02:52:35;6.40;99.90
43697;DHT22;29301;47.620;19.560;2022-12-10T02:55:00;6.40;99.90
43697;DHT22;29301;47.620;19.560;2022-12-10T03:00:24;6.50;99.90
43697;DHT22;29301;47.620;19.560;2022-12-10T03:08:37;6.50;99.90
43697;DHT22;29301;47.620;19.560;2022-12-10T03:11:16;6.50;99.90
43697;DHT22;29301;47.620;19.560;2022-12-10T03:16:18;6.60;99.90
43697;DHT22;29301;47.620;19.560;2022-12-10T03:18:47;6.50;99.90
43697;DHT22;29301;47.620;19.560;2022-12-10T03:21:13;6.50;99.90
43697;DHT22;29301;47.620;19.560;2022-12-10T03:23:43;6.50;99.90
43697;DHT22;29301;47.620;19.560;2022-12-10T03:26:11;6.50;99.90
43697;DHT22;29301;47.620;19.560;2022-12-10T03:28:41;6.50;99.90
43697;DHT22;29301;47.620;19.560;2022-12-10T03:31:10;6.50;99.90
43697;DHT22;29301;47.620;19.560;2022-12-10T03:33:37;6.50;99.90
43697;DHT22;29301;47.620;19.560;2022-12-10T03:36:04;6.50;99.90
43697;DHT22;29301;47.620;19.560;2022-12-10T03:38:30;6.40;99.90
43697;DHT22;29301;47.620;19.560;2022-12-10T03:40:56;6.30;99.90
43697;DHT22;29301;47.620;19.560;2022-12-10T03:43:22;6.20;99.90
43697;DHT22;29301;47.620;19.560;2022-12-10T03:45:47;6.20;99.90
43697;DHT22;29301;47.620;19.560;2022-12-10T03:48:13;6.20;99.90
43697;DHT22;29301;47.620;19.560;2022-12-10T03:50:39;6.20;99.90
43697;DHT22;29301;47.620;19.560;2022-12-10T03:53:04;6.20;99.90
43697;DHT22;29301;47.620;19.560;2022-12-10T03:55:30;6.20;99.90
43697;DHT22;29301;47.620;19.560;2022-12-10T03:57:56;6.20;99.90
43697;DHT22;29301;47.620;19.560;2022-12-10T04:00:22;6.20;99.90
43697;DHT22;29301;47.620;19.560;2022-12-10T04:02:48;6.20;99.90
43697;DHT22;29301;47.620;19.560;2022-12-10T04:05:13;6.20;99.90
43697;DHT22;29301;47.620;19.560;2022-12-10T04:07:39;6.20;99.90
43697;DHT22;29301;47.620;19.560;2022-12-10T04:10:05;6.10;99.90
43697;DHT22;29301;47.620;19.560;2022-12-10T04:12:30;6.20;99.90
43697;DHT22;29301;47.620;19.560;2022-12-10T04:14:56;6.10;99.90
43697;DHT22;29301;47.620;19.560;2022-12-10T04:17:40;6.10;99.90
43697;DHT22;29301;47.620;19.560;2022-12-10T04:20:06;6.00;99.90
43697;DHT22;29301;47.620;19.560;2022-12-10T04:22:52;6.10;99.90
43697;DHT22;29301;47.620;19.560;2022-12-10T04:25:36;6.10;99.90
43697;DHT22;29301;47.620;19.560;2022-12-10T04:28:20;6.00;99.90
43697;DHT22;29301;47.620;19.560;2022-12-10T04:30:46;6.00;99.90
43697;DHT22;29301;47.620;19.560;2022-12-10T04:33:11;6.00;99.90
43697;DHT22;29301;47.620;19.560;2022-12-10T04:35:37;6.00;99.90
43697;DHT22;29301;47.620;19.560;2022-12-10T04:38:03;6.00;99.90
43697;DHT22;29301;47.620;19.560;2022-12-10T04:40:28;6.00;99.90
43697;DHT22;29301;47.620;19.560;2022-12-10T04:42:54;6.00;99.90
43697;DHT22;29301;47.620;19.560;2022-12-10T04:45:19;5.90;99.90
43697;DHT22;29301;47.620;19.560;2022-12-10T04:47:45;5.90;99.90
43697;DHT22;29301;47.620;19.560;2022-12-10T04:50:11;5.90;99.90
43697;DHT22;29301;47.620;19.560;2022-12-10T04:52:37;5.90;99.90
43697;DHT22;29301;47.620;19.560;2022-12-10T04:55:02;5.80;99.90
43697;DHT22;29301;47.620;19.560;2022-12-10T04:57:28;5.70;99.90
43697;DHT22;29301;47.620;19.560;2022-12-10T04:59:54;5.70;99.90
43697;DHT22;29301;47.620;19.560;2022-12-10T05:02:19;5.70;99.90
43697;DHT22;29301;47.620;19.560;2022-12-10T05:04:45;5.60;99.90
43697;DHT22;29301;47.620;19.560;2022-12-10T05:07:11;5.60;99.90
43697;DHT22;29301;47.620;19.560;2022-12-10T05:09:37;5.60;99.90
43697;DHT22;29301;47.620;19.560;2022-12-10T05:12:03;5.60;99.90
43697;DHT22;29301;47.620;19.560;2022-12-10T05:14:29;5.70;99.90
43697;DHT22;29301;47.620;19.560;2022-12-10T05:16:54;5.70;99.90
43697;DHT22;29301;47.620;19.560;2022-12-10T05:19:20;5.70;99.90
43697;DHT22;29301;47.620;19.560;2022-12-10T05:21:47;5.80;99.90
43697;DHT22;29301;47.620;19.560;2022-12-10T05:24:32;5.90;99.90
43697;DHT22;29301;47.620;19.560;2022-12-10T05:26:58;5.90;99.90
43697;DHT22;29301;47.620;19.560;2022-12-10T05:29:23;5.90;99.90
43697;DHT22;29301;47.620;19.560;2022-12-10T05:31:49;5.90;99.90
43697;DHT22;29301;47.620;19.560;2022-12-10T05:34:15;5.90;99.90
43697;DHT22;29301;47.620;19.560;2022-12-10T05:36:41;5.90;99.90
43697;DHT22;29301;47.620;19.560;2022-12-10T05:39:07;5.90;99.90
43697;DHT22;29301;47.620;19.560;2022-12-10T05:41:35;5.90;99.90
43697;DHT22;29301;47.620;19.560;2022-12-10T05:44:02;5.90;99.90
43697;DHT22;29301;47.620;19.560;2022-12-10T05:46:30;6.00;99.90
43697;DHT22;29301;47.620;19.560;2022-12-10T05:48:56;5.90;99.90
43697;DHT22;29301;47.620;19.560;2022-12-10T05:51:25;6.00;99.90
43697;DHT22;29301;47.620;19.560;2022-12-10T05:53:52;6.00;99.90
43697;DHT22;29301;47.620;19.560;2022-12-10T05:56:20;5.90;99.90
43697;DHT22;29301;47.620;19.560;2022-12-10T05:58:48;5.80;99.90
43697;DHT22;29301;47.620;19.560;2022-12-10T06:01:19;5.90;99.90
43697;DHT22;29301;47.620;19.560;2022-12-10T06:03:45;5.90;99.90
43697;DHT22;29301;47.620;19.560;2022-12-10T06:06:11;5.80;99.90
43697;DHT22;29301;47.620;19.560;2022-12-10T06:08:38;5.90;99.90
43697;DHT22;29301;47.620;19.560;2022-12-10T06:11:07;5.90;99.90
43697;DHT22;29301;47.620;19.560;2022-12-10T06:13:33;5.90;99.90
43697;DHT22;29301;47.620;19.560;2022-12-10T06:15:59;5.90;99.90
43697;DHT22;29301;47.620;19.560;2022-12-10T06:18:24;5.90;99.90
43697;DHT22;29301;47.620;19.560;2022-12-10T06:20:50;5.90;99.90
43697;DHT22;29301;47.620;19.560;2022-12-10T06:23:16;5.90;99.90
43697;DHT22;29301;47.620;19.560;2022-12-10T06:25:42;5.80;99.90
43697;DHT22;29301;47.620;19.560;2022-12-10T06:28:08;5.70;99.90
43697;DHT22;29301;47.620;19.560;2022-12-10T06:30:34;5.60;99.90
43697;DHT22;29301;47.620;19.560;2022-12-10T06:33:00;5.60;99.90
43697;DHT22;29301;47.620;19.560;2022-12-10T06:35:26;5.60;99.90
43697;DHT22;29301;47.620;19.560;2022-12-10T06:37:51;5.60;99.90
43697;DHT22;29301;47.620;19.560;2022-12-10T06:40:18;5.60;99.90
43697;DHT22;29301;47.620;19.560;2022-12-10T06:42:44;5.50;99.90
43697;DHT22;29301;47.620;19.560;2022-12-10T06:45:10;5.50;99.90
43697;DHT22;29301;47.620;19.560;2022-12-10T06:47:36;5.50;99.90
43697;DHT22;29301;47.620;19.560;2022-12-10T06:50:02;5.50;99.90
43697;DHT22;29301;47.620;19.560;2022-12-10T06:52:28;5.50;99.90
43697;DHT22;29301;47.620;19.560;2022-12-10T06:54:53;5.50;99.90
43697;DHT22;29301;47.620;19.560;2022-12-10T06:57:21;5.60;99.90
43697;DHT22;29301;47.620;19.560;2022-12-10T06:59:46;5.60;99.90
43697;DHT22;29301;47.620;19.560;2022-12-10T07:02:12;5.70;99.90
43697;DHT22;29301;47.620;19.560;2022-12-10T07:04:38;5.60;99.90
43697;DHT22;29301;47.620;19.560;2022-12-10T07:07:05;5.50;99.90
43697;DHT22;29301;47.620;19.560;2022-12-10T07:09:32;5.50;99.90
43697;DHT22;29301;47.620;19.560;2022-12-10T07:11:58;5.40;99.90
43697;DHT22;29301;47.620;19.560;2022-12-10T07:14:24;5.40;99.90
43697;DHT22;29301;47.620;19.560;2022-12-10T07:16:49;5.40;99.90
43697;DHT22;29301;47.620;19.560;2022-12-10T07:19:15;5.40;99.90
43697;DHT22;29301;47.620;19.560;2022-12-10T07:21:42;5.40;99.90
43697;DHT22;29301;47.620;19.560;2022-12-10T07:24:14;5.40;99.90
43697;DHT22;29301;47.620;19.560;2022-12-10T07:26:41;5.40;99.90
43697;DHT22;29301;47.620;19.560;2022-12-10T07:29:13;5.40;99.90
43697;DHT22;29301;47.620;19.560;2022-12-10T07:31:40;5.50;99.90
43697;DHT22;29301;47.620;19.560;2022-12-10T07:34:05;5.50;99.90
43697;DHT22;29301;47.620;19.560;2022-12-10T07:36:31;5.50;99.90
43697;DHT22;29301;47.620;19.560;2022-12-10T07:38:57;5.60;99.90
43697;DHT22;29301;47.620;19.560;2022-12-10T07:41:23;5.50;99.90
43697;DHT22;29301;47.620;19.560;2022-12-10T07:43:49;5.50;99.90
43697;DHT22;29301;47.620;19.560;2022-12-10T07:48:44;5.50;99.90
43697;DHT22;29301;47.620;19.560;2022-12-10T07:51:10;5.60;99.90
43697;DHT22;29301;47.620;19.560;2022-12-10T07:53:36;5.60;99.90
43697;DHT22;29301;47.620;19.560;2022-12-10T07:56:03;5.60;99.90
43697;DHT22;29301;47.620;19.560;2022-12-10T07:58:29;5.70;99.90
43697;DHT22;29301;47.620;19.560;2022-12-10T08:00:55;5.70;99.90
43697;DHT22;29301;47.620;19.560;2022-12-10T08:03:20;5.80;99.90
43697;DHT22;29301;47.620;19.560;2022-12-10T08:05:46;5.80;99.90
43697;DHT22;29301;47.620;19.560;2022-12-10T08:08:12;5.70;99.90
43697;DHT22;29301;47.620;19.560;2022-12-10T08:10:39;5.70;99.90
43697;DHT22;29301;47.620;19.560;2022-12-10T08:13:05;5.70;99.90
43697;DHT22;29301;47.620;19.560;2022-12-10T08:15:32;5.70;99.90
43697;DHT22;29301;47.620;19.560;2022-12-10T08:17:57;5.70;99.90
43697;DHT22;29301;47.620;19.560;2022-12-10T08:20:24;5.80;99.90
43697;DHT22;29301;47.620;19.560;2022-12-10T08:22:50;5.80;99.90
43697;DHT22;29301;47.620;19.560;2022-12-10T08:25:16;5.80;99.90
43697;DHT22;29301;47.620;19.560;2022-12-10T08:27:42;5.80;99.90
43697;DHT22;29301;47.620;19.560;2022-12-10T08:30:08;5.80;99.90
43697;DHT22;29301;47.620;19.560;2022-12-10T08:32:34;5.80;99.90
43697;DHT22;29301;47.620;19.560;2022-12-10T08:35:00;5.80;99.90
43697;DHT22;29301;47.620;19.560;2022-12-10T08:37:26;5.70;99.90
43697;DHT22;29301;47.620;19.560;2022-12-10T08:39:52;5.70;99.90
43697;DHT22;29301;47.620;19.560;2022-12-10T08:42:17;5.80;99.90
43697;DHT22;29301;47.620;19.560;2022-12-10T08:44:43;5.80;99.90
43697;DHT22;29301;47.620;19.560;2022-12-10T08:47:08;5.80;99.90
43697;DHT22;29301;47.620;19.560;2022-12-10T08:49:34;5.90;99.90
43697;DHT22;29301;47.620;19.560;2022-12-10T08:52:00;5.90;99.90
43697;DHT22;29301;47.620;19.560;2022-12-10T08:54:25;5.90;99.90
43697;DHT22;29301;47.620;19.560;2022-12-10T08:56:51;6.00;99.90
43697;DHT22;29301;47.620;19.560;2022-12-10T08:59:17;6.30;99.90
43697;DHT22;29301;47.620;19.560;2022-12-10T09:01:42;6.40;99.90
43697;DHT22;29301;47.620;19.560;2022-12-10T09:04:08;6.70;99.90
43697;DHT22;29301;47.620;19.560;2022-12-10T09:06:35;6.60;99.90
43697;DHT22;29301;47.620;19.560;2022-12-10T09:09:01;6.50;99.90
43697;DHT22;29301;47.620;19.560;2022-12-10T09:11:32;6.70;99.90
43697;DHT22;29301;47.620;19.560;2022-12-10T09:13:58;6.60;99.90
43697;DHT22;29301;47.620;19.560;2022-12-10T09:16:33;6.50;99.90
43697;DHT22;29301;47.620;19.560;2022-12-10T09:18:59;6.40;99.90
43697;DHT22;29301;47.620;19.560;2022-12-10T09:21:25;6.40;99.90
43697;DHT22;29301;47.620;19.560;2022-12-10T09:23:51;6.30;99.90
43697;DHT22;29301;47.620;19.560;2022-12-10T09:26:19;6.30;99.90
43697;DHT22;29301;47.620;19.560;2022-12-10T09:28:46;6.20;99.90
43697;DHT22;29301;47.620;19.560;2022-12-10T09:31:13;6.10;99.90
43697;DHT22;29301;47.620;19.560;2022-12-10T09:33:40;6.20;99.90
43697;DHT22;29301;47.620;19.560;2022-12-10T09:36:07;6.20;99.90
43697;DHT22;29301;47.620;19.560;2022-12-10T09:38:35;6.20;99.90
43697;DHT22;29301;47.620;19.560;2022-12-10T09:43:54;6.20;99.90
43697;DHT22;29301;47.620;19.560;2022-12-10T09:46:53;6.20;99.90
43697;DHT22;29301;47.620;19.560;2022-12-10T09:52:11;6.00;99.90
43697;DHT22;29301;47.620;19.560;2022-12-10T09:54:57;6.00;99.90
43697;DHT22;29301;47.620;19.560;2022-12-10T09:57:33;5.90;99.90
43697;DHT22;29301;47.620;19.560;2022-12-10T10:02:41;5.90;99.90
43697;DHT22;29301;47.620;19.560;2022-12-10T10:07:44;6.00;99.90
43697;DHT22;29301;47.620;19.560;2022-12-10T10:10:21;6.00;99.90
43697;DHT22;29301;47.620;19.560;2022-12-10T10:12:47;6.00;99.90
43697;DHT22;29301;47.620;19.560;2022-12-10T10:15:21;6.00;99.90
43697;DHT22;29301;47.620;19.560;2022-12-10T10:17:47;6.10;99.90
43697;DHT22;29301;47.620;19.560;2022-12-10T10:20:15;6.10;99.90
43697;DHT22;29301;47.620;19.560;2022-12-10T10:22:41;6.20;99.90
43697;DHT22;29301;47.620;19.560;2022-12-10T10:25:16;6.10;99.90
43697;DHT22;29301;47.620;19.560;2022-12-10T10:27:42;6.10;99.90
43697;DHT22;29301;47.620;19.560;2022-12-10T10:30:16;6.10;99.90
43697;DHT22;29301;47.620;19.560;2022-12-10T10:38:06;6.10;99.90
43697;DHT22;29301;47.620;19.560;2022-12-10T10:40:39;6.00;99.90
43697;DHT22;29301;47.620;19.560;2022-12-10T10:43:05;6.00;99.90
43697;DHT22;29301;47.620;19.560;2022-12-10T10:45:40;6.00;99.90
43697;DHT22;29301;47.620;19.560;2022-12-10T10:48:21;6.00;99.90
43697;DHT22;29301;47.620;19.560;2022-12-10T10:50:55;6.10;99.90
43697;DHT22;29301;47.620;19.560;2022-12-10T10:56:04;6.10;99.90
43697;DHT22;29301;47.620;19.560;2022-12-10T10:58:32;6.10;99.90
43697;DHT22;29301;47.620;19.560;2022-12-10T11:01:06;6.10;99.90
43697;DHT22;29301;47.620;19.560;2022-12-10T11:03:35;6.10;99.90
43697;DHT22;29301;47.620;19.560;2022-12-10T11:06:05;6.20;99.90
43697;DHT22;29301;47.620;19.560;2022-12-10T11:08:32;6.20;99.90
43697;DHT22;29301;47.620;19.560;2022-12-10T11:11:11;6.20;99.90
43697;DHT22;29301;47.620;19.560;2022-12-10T11:13:39;6.20;99.90
43697;DHT22;29301;47.620;19.560;2022-12-10T11:16:23;6.20;99.90
43697;DHT22;29301;47.620;19.560;2022-12-10T11:19:01;6.20;99.90
43697;DHT22;29301;47.620;19.560;2022-12-10T11:21:32;6.10;99.90
43697;DHT22;29301;47.620;19.560;2022-12-10T11:23:59;6.10;99.90
43697;DHT22;29301;47.620;19.560;2022-12-10T11:37:36;6.40;99.90
43697;DHT22;29301;47.620;19.560;2022-12-10T11:40:06;6.40;99.90
43697;DHT22;29301;47.620;19.560;2022-12-10T11:51:23;6.30;99.90
43697;DHT22;29301;47.620;19.560;2022-12-10T12:01:57;6.30;99.90
43697;DHT22;29301;47.620;19.560;2022-12-10T12:15:39;6.20;99.90
43697;DHT22;29301;47.620;19.560;2022-12-10T12:21:04;6.30;99.90
43697;DHT22;29301;47.620;19.560;2022-12-10T12:23:33;6.30;99.90
43697;DHT22;29301;47.620;19.560;2022-12-10T12:26:19;7.20;99.90
43697;DHT22;29301;47.620;19.560;2022-12-10T12:28:54;7.10;99.90
43697;DHT22;29301;47.620;19.560;2022-12-10T12:31:35;6.80;99.90
43697;DHT22;29301;47.620;19.560;2022-12-10T12:36:55;6.60;99.90
43697;DHT22;29301;47.620;19.560;2022-12-10T12:42:24;6.50;99.90
43697;DHT22;29301;47.620;19.560;2022-12-10T12:47:55;6.40;99.90
43697;DHT22;29301;47.620;19.560;2022-12-10T12:50:47;6.50;99.90
43697;DHT22;29301;47.620;19.560;2022-12-10T12:53:16;6.50;99.90
43697;DHT22;29301;47.620;19.560;2022-12-10T13:01:18;6.40;99.90
43697;DHT22;29301;47.620;19.560;2022-12-10T13:03:45;6.40;99.90
43697;DHT22;29301;47.620;19.560;2022-12-10T13:06:24;6.40;99.90
43697;DHT22;29301;47.620;19.560;2022-12-10T13:17:01;6.30;99.90
43697;DHT22;29301;47.620;19.560;2022-12-10T13:19:33;6.30;99.90
43697;DHT22;29301;47.620;19.560;2022-12-10T13:22:38;6.30;99.90
43697;DHT22;29301;47.620;19.560;2022-12-10T13:25:16;6.20;99.90
43697;DHT22;29301;47.620;19.560;2022-12-10T13:27:55;6.20;99.90
43697;DHT22;29301;47.620;19.560;2022-12-10T13:30:34;6.30;99.90
43697;DHT22;29301;47.620;19.560;2022-12-10T13:33:14;6.30;99.90
43697;DHT22;29301;47.620;19.560;2022-12-10T13:35:56;6.30;99.90
43697;DHT22;29301;47.620;19.560;2022-12-10T13:38:24;6.30;99.90
43697;DHT22;29301;47.620;19.560;2022-12-10T13:41:02;6.20;99.90
43697;DHT22;29301;47.620;19.560;2022-12-10T13:43:59;6.30;99.90
43697;DHT22;29301;47.620;19.560;2022-12-10T13:46:56;6.30;99.90
43697;DHT22;29301;47.620;19.560;2022-12-10T13:49:27;6.20;99.90
43697;DHT22;29301;47.620;19.560;2022-12-10T13:52:05;6.20;99.90
43697;DHT22;29301;47.620;19.560;2022-12-10T14:06:24;6.10;99.90
43697;DHT22;29301;47.620;19.560;2022-12-10T14:08:32;6.10;99.90
43697;DHT22;29301;47.620;19.560;2022-12-10T14:11:00;6.00;99.90
43697;DHT22;29301;47.620;19.560;2022-12-10T14:13:40;6.00;99.90
43697;DHT22;29301;47.620;19.560;2022-12-10T14:16:12;5.90;99.90
43697;DHT22;29301;47.620;19.560;2022-12-10T14:18:42;5.90;99.90
43697;DHT22;29301;47.620;19.560;2022-12-10T14:21:10;5.90;99.90
43697;DHT22;29301;47.620;19.560;2022-12-10T14:23:44;5.90;99.90
43697;DHT22;29301;47.620;19.560;2022-12-10T14:26:43;5.90;99.90
43697;DHT22;29301;47.620;19.560;2022-12-10T14:29:17;5.90;99.90
43697;DHT22;29301;47.620;19.560;2022-12-10T14:31:48;6.00;99.90
43697;DHT22;29301;47.620;19.560;2022-12-10T14:34:17;6.00;99.90
43697;DHT22;29301;47.620;19.560;2022-12-10T14:36:49;5.90;99.90
43697;DHT22;29301;47.620;19.560;2022-12-10T14:39:30;5.90;99.90
43697;DHT22;29301;47.620;19.560;2022-12-10T14:42:02;5.90;99.90
43697;DHT22;29301;47.620;19.560;2022-12-10T14:44:30;5.90;99.90
43697;DHT22;29301;47.620;19.560;2022-12-10T14:47:14;5.90;99.90
43697;DHT22;29301;47.620;19.560;2022-12-10T14:49:43;5.90;99.90
43697;DHT22;29301;47.620;19.560;2022-12-10T14:52:15;5.90;99.90
43697;DHT22;29301;47.620;19.560;2022-12-10T14:54:41;5.90;99.90
43697;DHT22;29301;47.620;19.560;2022-12-10T14:57:15;5.70;99.90
43697;DHT22;29301;47.620;19.560;2022-12-10T15:00:07;5.70;99.90
43697;DHT22;29301;47.620;19.560;2022-12-10T15:02:39;5.70;99.90
43697;DHT22;29301;47.620;19.560;2022-12-10T15:05:20;5.60;99.90
43697;DHT22;29301;47.620;19.560;2022-12-10T15:10:38;5.60;99.90
43697;DHT22;29301;47.620;19.560;2022-12-10T15:13:05;5.60;99.90
43697;DHT22;29301;47.620;19.560;2022-12-10T15:15:36;5.50;99.90
43697;DHT22;29301;47.620;19.560;2022-12-10T15:18:12;5.50;99.90
43697;DHT22;29301;47.620;19.560;2022-12-10T15:28:34;5.40;99.90
43697;DHT22;29301;47.620;19.560;2022-12-10T15:31:30;5.50;99.90
43697;DHT22;29301;47.620;19.560;2022-12-10T15:34:00;5.50;99.90
43697;DHT22;29301;47.620;19.560;2022-12-10T15:38:52;5.60;99.90
43697;DHT22;29301;47.620;19.560;2022-12-10T15:47:33;5.40;99.90
43697;DHT22;29301;47.620;19.560;2022-12-10T15:50:00;5.40;99.90
43697;DHT22;29301;47.620;19.560;2022-12-10T15:52:29;5.40;99.90
43697;DHT22;29301;47.620;19.560;2022-12-10T15:54:56;5.50;99.90
43697;DHT22;29301;47.620;19.560;2022-12-10T15:57:32;5.70;99.90
43697;DHT22;29301;47.620;19.560;2022-12-10T16:00:00;6.30;99.90
43697;DHT22;29301;47.620;19.560;2022-12-10T16:02:45;6.80;99.90
43697;DHT22;29301;47.620;19.560;2022-12-10T16:07:45;6.90;99.90
43697;DHT22;29301;47.620;19.560;2022-12-10T16:10:12;6.60;99.90
43697;DHT22;29301;47.620;19.560;2022-12-10T16:12:38;6.40;99.90
43697;DHT22;29301;47.620;19.560;2022-12-10T16:15:06;6.30;99.90
43697;DHT22;29301;47.620;19.560;2022-12-10T16:17:32;6.10;99.90
43697;DHT22;29301;47.620;19.560;2022-12-10T16:19:59;6.00;99.90
43697;DHT22;29301;47.620;19.560;2022-12-10T16:22:25;5.90;99.90
43697;DHT22;29301;47.620;19.560;2022-12-10T16:24:51;5.80;99.90
43697;DHT22;29301;47.620;19.560;2022-12-10T16:27:16;5.80;99.90
43697;DHT22;29301;47.620;19.560;2022-12-10T16:29:43;5.70;99.90
43697;DHT22;29301;47.620;19.560;2022-12-10T16:32:10;5.80;99.90
43697;DHT22;29301;47.620;19.560;2022-12-10T16:34:36;5.80;99.90
43697;DHT22;29301;47.620;19.560;2022-12-10T16:37:02;5.90;99.90
43697;DHT22;29301;47.620;19.560;2022-12-10T16:39:28;5.90;99.90
43697;DHT22;29301;47.620;19.560;2022-12-10T16:41:54;5.90;99.90
43697;DHT22;29301;47.620;19.560;2022-12-10T16:44:20;5.90;99.90
43697;DHT22;29301;47.620;19.560;2022-12-10T16:46:46;5.90;99.90
43697;DHT22;29301;47.620;19.560;2022-12-10T16:49:12;6.00;99.90
43697;DHT22;29301;47.620;19.560;2022-12-10T16:51:37;6.00;99.90
43697;DHT22;29301;47.620;19.560;2022-12-10T16:54:04;6.00;99.90
43697;DHT22;29301;47.620;19.560;2022-12-10T16:56:30;6.00;99.90
43697;DHT22;29301;47.620;19.560;2022-12-10T16:58:56;6.00;99.90
43697;DHT22;29301;47.620;19.560;2022-12-10T17:01:25;6.00;99.90
43697;DHT22;29301;47.620;19.560;2022-12-10T17:03:54;6.00;99.90
43697;DHT22;29301;47.620;19.560;2022-12-10T17:06:20;6.10;99.90
43697;DHT22;29301;47.620;19.560;2022-12-10T17:08:47;6.00;99.90
43697;DHT22;29301;47.620;19.560;2022-12-10T17:14:30;6.00;99.90
43697;DHT22;29301;47.620;19.560;2022-12-10T17:16:57;6.00;99.90
43697;DHT22;29301;47.620;19.560;2022-12-10T17:19:26;6.10;99.90
43697;DHT22;29301;47.620;19.560;2022-12-10T17:21:53;6.00;99.90
43697;DHT22;29301;47.620;19.560;2022-12-10T17:24:18;6.00;99.90
43697;DHT22;29301;47.620;19.560;2022-12-10T17:26:46;6.00;99.90
43697;DHT22;29301;47.620;19.560;2022-12-10T17:29:15;6.00;99.90
43697;DHT22;29301;47.620;19.560;2022-12-10T17:31:43;5.90;99.90
43697;DHT22;29301;47.620;19.560;2022-12-10T17:34:10;5.90;99.90
43697;DHT22;29301;47.620;19.560;2022-12-10T17:36:37;5.90;99.90
43697;DHT22;29301;47.620;19.560;2022-12-10T17:39:03;6.00;99.90
43697;DHT22;29301;47.620;19.560;2022-12-10T17:41:29;6.00;99.90
43697;DHT22;29301;47.620;19.560;2022-12-10T17:43:54;5.90;99.90
43697;DHT22;29301;47.620;19.560;2022-12-10T17:46:23;5.90;99.90
43697;DHT22;29301;47.620;19.560;2022-12-10T17:48:49;5.90;99.90
43697;DHT22;29301;47.620;19.560;2022-12-10T17:51:15;5.90;99.90
43697;DHT22;29301;47.620;19.560;2022-12-10T17:53:41;5.90;99.90
43697;DHT22;29301;47.620;19.560;2022-12-10T17:56:19;6.00;99.90
43697;DHT22;29301;47.620;19.560;2022-12-10T17:58:46;6.00;99.90
43697;DHT22;29301;47.620;19.560;2022-12-10T18:01:14;6.00;99.90
43697;DHT22;29301;47.620;19.560;2022-12-10T18:03:40;6.00;99.90
43697;DHT22;29301;47.620;19.560;2022-12-10T18:06:17;6.00;99.90
43697;DHT22;29301;47.620;19.560;2022-12-10T18:08:44;5.90;99.90
43697;DHT22;29301;47.620;19.560;2022-12-10T18:11:15;6.00;99.90
43697;DHT22;29301;47.620;19.560;2022-12-10T18:13:41;6.00;99.90